createdAt,value
2023-04-28T00:00:36.332Z,6.69
2023-04-28T00:01:38.094Z,6.73
2023-04-28T00:02:39.862Z,6.69
2023-04-28T00:03:41.707Z,6.81
2023-04-28T00:04:43.486Z,6.79
2023-04-28T00:05:45.201Z,6.81
2023-04-28T00:06:46.835Z,6.88
2023-04-28T00:07:48.725Z,6.89
2023-04-28T00:08:50.326Z,6.86
2023-04-28T00:09:51.874Z,6.85
2023-04-28T00:10:53.517Z,6.83
2023-04-28T00:11:55.122Z,6.81
2023-04-28T00:12:56.678Z,6.78
2023-04-28T00:13:58.295Z,6.73
2023-04-28T00:14:59.868Z,6.76
2023-04-28T00:16:01.653Z,6.78
2023-04-28T00:17:03.383Z,6.74
2023-04-28T00:18:05.134Z,6.77
2023-04-28T00:19:07.614Z,6.69
2023-04-28T00:20:09.732Z,6.75
2023-04-28T00:21:11.465Z,6.72
2023-04-28T00:22:13.065Z,6.71
2023-04-28T00:23:14.630Z,6.75
2023-04-28T00:24:16.387Z,6.79
2023-04-28T00:25:18.305Z,6.77
2023-04-28T00:26:20.011Z,6.87
2023-04-28T00:27:21.954Z,6.81
2023-04-28T00:28:33.606Z,6.80
2023-04-28T00:29:37.089Z,6.81
2023-04-28T00:30:38.695Z,6.90
2023-04-28T00:31:40.437Z,6.83
2023-04-28T00:32:42.056Z,6.89
2023-04-28T00:33:44.378Z,6.88
2023-04-28T00:34:46.054Z,6.88
2023-04-28T00:35:47.674Z,6.94
2023-04-28T00:36:49.258Z,6.96
2023-04-28T00:37:50.864Z,6.95
2023-04-28T00:38:52.496Z,7.00
2023-04-28T00:39:56.971Z,7.00
2023-04-28T00:40:58.633Z,6.93
2023-04-28T00:42:00.256Z,7.02
2023-04-28T00:43:01.851Z,6.98
2023-04-28T00:44:03.511Z,6.97
2023-04-28T00:45:08.508Z,7.12
2023-04-28T00:46:11.571Z,7.18
2023-04-28T00:47:13.512Z,7.09
2023-04-28T00:48:15.149Z,7.16
2023-04-28T00:49:16.956Z,7.06
2023-04-28T00:50:18.672Z,7.10
2023-04-28T00:51:21.167Z,7.13
2023-04-28T00:52:22.633Z,7.04
2023-04-28T00:53:24.273Z,7.07
2023-04-28T00:54:25.952Z,7.01
2023-04-28T00:55:28.095Z,6.95
2023-04-28T00:56:31.325Z,6.92
2023-04-28T00:57:32.925Z,6.94
2023-04-28T00:58:35.300Z,7.01
2023-04-28T00:59:37.012Z,7.03
2023-04-28T01:00:39.330Z,7.05
2023-04-28T01:01:41.029Z,7.00
2023-04-28T01:02:42.891Z,7.06
2023-04-28T01:03:53.242Z,7.07
2023-04-28T01:04:56.474Z,7.08
2023-04-28T01:05:58.636Z,7.07
2023-04-28T01:07:00.763Z,7.08
2023-04-28T01:08:03.037Z,7.04
2023-04-28T01:09:06.290Z,7.25
2023-04-28T01:10:08.643Z,7.07
2023-04-28T01:11:13.966Z,7.07
2023-04-28T01:12:34.785Z,7.04
2023-04-28T01:13:36.423Z,6.99
2023-04-28T01:14:38.589Z,6.95
2023-04-28T01:15:40.833Z,6.92
2023-04-28T01:16:43.286Z,7.09
2023-04-28T01:17:46.004Z,7.07
2023-04-28T01:18:48.300Z,7.13
2023-04-28T01:19:50.036Z,7.07
2023-04-28T01:20:51.756Z,7.12
2023-04-28T01:21:53.485Z,7.06
2023-04-28T01:22:56.340Z,7.08
2023-04-28T01:23:59.072Z,7.05
2023-04-28T01:25:00.847Z,7.02
2023-04-28T01:26:03.221Z,6.99
2023-04-28T01:27:04.778Z,7.03
2023-04-28T01:28:06.453Z,7.03
2023-04-28T01:29:08.260Z,7.05
2023-04-28T01:30:10.885Z,7.04
2023-04-28T01:31:12.515Z,7.05
2023-04-28T01:32:14.118Z,7.05
2023-04-28T01:33:15.735Z,7.12
2023-04-28T01:34:17.593Z,7.11
2023-04-28T01:35:19.461Z,7.11
2023-04-28T01:36:22.535Z,7.14
2023-04-28T01:37:24.194Z,7.16
2023-04-28T01:38:25.854Z,7.18
2023-04-28T01:39:27.463Z,7.21
2023-04-28T01:40:29.142Z,7.21
2023-04-28T01:41:34.449Z,7.25
2023-04-28T01:42:36.191Z,7.30
2023-04-28T01:43:37.760Z,7.21
2023-04-28T01:44:40.136Z,7.19
2023-04-28T01:45:41.849Z,7.28
2023-04-28T01:46:43.561Z,7.29
2023-04-28T01:47:45.209Z,7.34
2023-04-28T01:48:47.831Z,7.31
2023-04-28T01:49:50.371Z,7.37
2023-04-28T01:50:51.909Z,7.47
2023-04-28T01:51:53.508Z,7.50
2023-04-28T01:52:55.086Z,7.45
2023-04-28T01:53:56.990Z,7.53
2023-04-28T01:54:59.130Z,7.50
2023-04-28T01:56:00.975Z,7.48
2023-04-28T01:57:03.222Z,7.50
2023-04-28T01:58:06.297Z,7.50
2023-04-28T01:59:07.930Z,7.53
2023-04-28T02:00:10.036Z,7.53
2023-04-28T02:01:23.126Z,7.55
2023-04-28T02:02:25.402Z,7.55
2023-04-28T02:03:28.230Z,7.55
2023-04-28T02:04:29.987Z,7.57
2023-04-28T02:05:31.905Z,7.53
2023-04-28T02:06:34.556Z,7.52
2023-04-28T02:07:36.335Z,7.62
2023-04-28T02:08:38.550Z,7.59
2023-04-28T02:09:40.684Z,7.57
2023-04-28T02:10:42.236Z,7.50
2023-04-28T02:11:43.826Z,7.48
2023-04-28T02:12:45.436Z,7.55
2023-04-28T02:13:47.116Z,7.53
2023-04-28T02:14:48.798Z,7.64
2023-04-28T02:15:50.411Z,7.71
2023-04-28T02:16:51.984Z,7.73
2023-04-28T02:17:53.639Z,7.76
2023-04-28T02:18:55.271Z,7.70
2023-04-28T02:19:57.135Z,7.60
2023-04-28T02:20:58.753Z,7.50
2023-04-28T02:22:00.341Z,7.63
2023-04-28T02:23:02.131Z,7.71
2023-04-28T02:24:03.880Z,7.59
2023-04-28T02:25:06.305Z,7.51
2023-04-28T02:26:08.181Z,7.48
2023-04-28T02:27:09.760Z,7.62
2023-04-28T02:28:11.336Z,7.62
2023-04-28T02:29:13.040Z,7.70
2023-04-28T02:30:14.694Z,7.70
2023-04-28T02:31:16.934Z,7.68
2023-04-28T02:32:18.706Z,7.62
2023-04-28T02:33:20.305Z,7.80
2023-04-28T02:34:21.939Z,7.83
2023-04-28T02:35:23.795Z,7.85
2023-04-28T02:36:27.737Z,7.85
2023-04-28T02:37:29.298Z,7.86
2023-04-28T02:38:31.272Z,7.82
2023-04-28T02:39:33.392Z,7.83
2023-04-28T02:40:34.994Z,7.87
2023-04-28T02:41:36.620Z,7.91
2023-04-28T02:42:38.196Z,7.86
2023-04-28T02:43:39.891Z,8.03
2023-04-28T02:44:41.572Z,8.03
2023-04-28T02:45:43.180Z,8.00
2023-04-28T02:46:44.965Z,8.06
2023-04-28T02:47:46.664Z,8.08
2023-04-28T02:48:48.274Z,8.06
2023-04-28T02:49:49.892Z,8.02
2023-04-28T02:50:52.947Z,8.03
2023-04-28T02:51:54.775Z,7.97
2023-04-28T02:52:56.413Z,8.01
2023-04-28T02:53:57.986Z,8.05
2023-04-28T02:54:59.757Z,8.02
2023-04-28T02:56:04.422Z,8.10
2023-04-28T02:57:07.285Z,8.15
2023-04-28T02:58:08.971Z,8.25
2023-04-28T02:59:10.692Z,8.23
2023-04-28T03:00:12.923Z,8.23
2023-04-28T03:01:20.756Z,8.10
2023-04-28T03:02:23.137Z,8.03
2023-04-28T03:03:24.975Z,8.14
2023-04-28T03:04:27.504Z,8.09
2023-04-28T03:05:29.202Z,8.13
2023-04-28T03:06:31.672Z,8.03
2023-04-28T03:07:34.574Z,8.09
2023-04-28T03:08:36.150Z,8.17
2023-04-28T03:09:37.689Z,8.09
2023-04-28T03:10:39.331Z,8.02
2023-04-28T03:11:41.390Z,8.05
2023-04-28T03:12:43.850Z,7.95
2023-04-28T03:13:45.456Z,7.91
2023-04-28T03:14:47.266Z,7.91
2023-04-28T03:15:48.895Z,7.92
2023-04-28T03:16:50.846Z,7.87
2023-04-28T03:17:52.561Z,7.87
2023-04-28T03:18:54.266Z,7.91
2023-04-28T03:19:56.015Z,8.05
2023-04-28T03:20:57.956Z,8.04
2023-04-28T03:22:01.009Z,8.08
2023-04-28T03:23:02.725Z,8.12
2023-04-28T03:24:05.809Z,8.14
2023-04-28T03:25:08.371Z,8.01
2023-04-28T03:26:18.142Z,8.01
2023-04-28T03:27:19.840Z,7.98
2023-04-28T03:28:21.975Z,8.01
2023-04-28T03:29:25.387Z,7.97
2023-04-28T03:30:27.090Z,7.94
2023-04-28T03:31:28.795Z,7.89
2023-04-28T03:32:30.448Z,7.87
2023-04-28T03:33:32.170Z,7.91
2023-04-28T03:34:34.880Z,8.06
2023-04-28T03:35:36.595Z,8.09
2023-04-28T03:36:38.289Z,8.18
2023-04-28T03:37:47.704Z,8.26
2023-04-28T03:38:49.538Z,8.32
2023-04-28T03:39:51.195Z,8.18
2023-04-28T03:40:52.766Z,8.14
2023-04-28T03:42:06.347Z,8.14
2023-04-28T03:43:27.284Z,8.07
2023-04-28T03:44:55.079Z,8.10
2023-04-28T03:45:56.890Z,8.14
2023-04-28T03:46:59.079Z,8.13
2023-04-28T03:48:00.812Z,8.09
2023-04-28T03:49:02.764Z,8.03
2023-04-28T03:50:06.227Z,8.09
2023-04-28T03:51:07.856Z,8.09
2023-04-28T03:52:09.491Z,8.21
2023-04-28T03:53:11.674Z,8.18
2023-04-28T03:54:13.533Z,8.08
2023-04-28T03:55:16.302Z,7.96
2023-04-28T03:56:18.069Z,8.07
2023-04-28T03:57:19.671Z,7.98
2023-04-28T03:58:21.384Z,8.00
2023-04-28T03:59:23.048Z,7.86
2023-04-28T04:00:24.709Z,7.89
2023-04-28T04:01:28.135Z,8.01
2023-04-28T04:02:29.894Z,7.98
2023-04-28T04:03:31.848Z,8.03
2023-04-28T04:04:33.844Z,7.99
2023-04-28T04:05:35.723Z,8.15
2023-04-28T04:06:37.404Z,8.04
2023-04-28T04:07:39.021Z,8.05
2023-04-28T04:08:40.916Z,8.16
2023-04-28T04:09:42.544Z,8.24
2023-04-28T04:10:44.834Z,8.23
2023-04-28T04:11:47.071Z,8.24
2023-04-28T04:12:48.710Z,8.14
2023-04-28T04:13:50.315Z,8.19
2023-04-28T04:14:53.227Z,8.22
2023-04-28T04:15:55.985Z,8.16
2023-04-28T04:16:59.292Z,8.15
2023-04-28T04:18:01.206Z,8.32
2023-04-28T04:19:11.088Z,8.30
2023-04-28T04:20:16.571Z,8.28
2023-04-28T04:21:19.683Z,8.26
2023-04-28T04:22:22.154Z,8.27
2023-04-28T04:23:23.893Z,8.30
2023-04-28T04:24:25.755Z,8.40
2023-04-28T04:25:27.591Z,8.35
2023-04-28T04:26:29.976Z,8.37
2023-04-28T04:27:31.682Z,8.41
2023-04-28T04:28:33.716Z,8.57
2023-04-28T04:29:35.385Z,8.47
2023-04-28T04:30:42.313Z,8.47
2023-04-28T04:31:45.495Z,8.45
2023-04-28T04:32:47.345Z,8.43
2023-04-28T04:33:49.369Z,8.48
2023-04-28T04:34:52.864Z,8.47
2023-04-28T04:35:54.957Z,8.47
2023-04-28T04:36:57.340Z,8.49
2023-04-28T04:37:59.881Z,8.45
2023-04-28T04:39:01.549Z,8.57
2023-04-28T04:40:03.605Z,8.60
2023-04-28T04:41:10.892Z,8.55
2023-04-28T04:42:23.934Z,8.62
2023-04-28T04:43:39.498Z,8.57
2023-04-28T04:44:41.101Z,8.60
2023-04-28T04:45:47.785Z,8.58
2023-04-28T04:46:49.842Z,8.67
2023-04-28T04:47:53.505Z,8.63
2023-04-28T04:48:55.200Z,8.70
2023-04-28T04:49:57.150Z,8.78
2023-04-28T04:50:58.756Z,8.79
2023-04-28T04:52:01.646Z,8.76
2023-04-28T04:53:04.855Z,8.70
2023-04-28T04:54:07.364Z,8.75
2023-04-28T04:55:11.164Z,8.81
2023-04-28T04:56:14.933Z,8.83
2023-04-28T04:57:18.423Z,8.75
2023-04-28T04:58:44.305Z,8.73
2023-04-28T05:00:16.912Z,8.69
2023-04-28T05:01:18.596Z,8.68
2023-04-28T05:02:20.574Z,8.73
2023-04-28T05:03:22.384Z,8.98
2023-04-28T05:04:24.490Z,8.85
2023-04-28T05:05:26.389Z,8.74
2023-04-28T05:06:41.259Z,8.71
2023-04-28T05:07:43.168Z,8.70
2023-04-28T05:08:44.963Z,8.66
2023-04-28T05:09:47.107Z,8.72
2023-04-28T05:10:48.727Z,8.75
2023-04-28T05:11:50.472Z,8.75
2023-04-28T05:12:52.071Z,8.71
2023-04-28T05:13:53.707Z,8.64
2023-04-28T05:14:55.486Z,8.66
2023-04-28T05:15:57.199Z,8.66
2023-04-28T05:17:04.762Z,8.66
2023-04-28T05:18:13.705Z,8.78
2023-04-28T05:19:16.135Z,8.70
2023-04-28T05:20:18.099Z,8.76
2023-04-28T05:21:19.792Z,8.75
2023-04-28T05:22:23.169Z,8.76
2023-04-28T05:23:25.138Z,8.85
2023-04-28T05:24:26.872Z,8.80
2023-04-28T05:25:28.586Z,8.98
2023-04-28T05:26:30.409Z,8.94
2023-04-28T05:27:39.412Z,8.95
2023-04-28T05:28:41.587Z,8.90
2023-04-28T05:29:43.791Z,8.88
2023-04-28T05:30:46.207Z,8.91
2023-04-28T05:31:48.445Z,8.89
2023-04-28T05:32:50.356Z,8.88
2023-04-28T05:33:52.041Z,8.91
2023-04-28T05:34:53.743Z,8.92
2023-04-28T05:35:55.452Z,8.96
2023-04-28T05:36:57.245Z,8.87
2023-04-28T05:38:02.058Z,8.96
2023-04-28T05:39:03.728Z,8.92
2023-04-28T05:40:06.113Z,9.00
2023-04-28T05:41:08.603Z,9.02
2023-04-28T05:42:10.240Z,8.99
2023-04-28T05:43:12.024Z,8.98
2023-04-28T05:44:13.923Z,8.97
2023-04-28T05:45:15.740Z,9.02
2023-04-28T05:46:29.152Z,9.01
2023-04-28T05:47:33.164Z,9.18
2023-04-28T05:48:35.476Z,9.15
2023-04-28T05:49:37.724Z,9.17
2023-04-28T05:50:40.122Z,9.22
2023-04-28T05:51:41.755Z,9.24
2023-04-28T05:52:43.426Z,9.26
2023-04-28T05:53:48.704Z,9.31
2023-04-28T05:54:50.568Z,9.29
2023-04-28T05:55:52.534Z,9.34
2023-04-28T05:56:55.214Z,9.43
2023-04-28T05:57:56.845Z,9.45
2023-04-28T05:58:59.090Z,9.55
2023-04-28T06:00:00.805Z,9.59
2023-04-28T06:01:02.426Z,9.74
2023-04-28T06:02:04.054Z,9.82
2023-04-28T06:03:05.983Z,9.90
2023-04-28T06:04:08.120Z,9.92
2023-04-28T06:05:11.579Z,9.96
2023-04-28T06:06:13.975Z,10.03
2023-04-28T06:07:15.871Z,10.07
2023-04-28T06:08:17.718Z,10.16
2023-04-28T06:09:19.425Z,10.17
2023-04-28T06:10:22.317Z,10.25
2023-04-28T06:11:23.920Z,10.26
2023-04-28T06:12:26.264Z,10.30
2023-04-28T06:13:27.998Z,10.28
2023-04-28T06:14:29.912Z,10.30
2023-04-28T06:15:31.614Z,10.23
2023-04-28T06:16:33.538Z,10.28
2023-04-28T06:17:35.195Z,10.28
2023-04-28T06:18:36.809Z,10.48
2023-04-28T06:19:39.176Z,10.45
2023-04-28T06:20:40.781Z,10.52
2023-04-28T06:21:42.348Z,10.48
2023-04-28T06:22:43.997Z,10.49
2023-04-28T06:23:46.088Z,10.53
2023-04-28T06:24:47.912Z,10.51
2023-04-28T06:25:53.460Z,10.53
2023-04-28T06:26:55.705Z,10.69
2023-04-28T06:27:57.324Z,10.73
2023-04-28T06:28:59.548Z,10.55
2023-04-28T06:30:01.220Z,10.58
2023-04-28T06:31:02.849Z,10.65
2023-04-28T06:32:04.716Z,10.70
2023-04-28T06:33:06.608Z,10.89
2023-04-28T06:34:08.478Z,10.92
2023-04-28T06:35:10.940Z,10.98
2023-04-28T06:36:14.102Z,11.09
2023-04-28T06:37:15.797Z,10.96
2023-04-28T06:38:17.583Z,11.08
2023-04-28T06:39:19.226Z,11.00
2023-04-28T06:40:21.061Z,10.84
2023-04-28T06:41:29.123Z,11.02
2023-04-28T06:42:31.520Z,10.94
2023-04-28T06:43:40.272Z,11.09
2023-04-28T06:44:45.747Z,11.12
2023-04-28T06:45:47.378Z,11.15
2023-04-28T06:46:48.986Z,11.15
2023-04-28T06:47:51.204Z,11.23
2023-04-28T06:48:53.016Z,11.13
2023-04-28T06:49:54.678Z,11.14
2023-04-28T06:50:56.485Z,11.07
2023-04-28T06:51:58.087Z,10.94
2023-04-28T06:52:59.718Z,11.00
2023-04-28T06:54:04.383Z,11.03
2023-04-28T06:55:07.756Z,10.99
2023-04-28T06:56:11.248Z,10.99
2023-04-28T06:57:13.348Z,10.92
2023-04-28T06:58:15.520Z,10.81
2023-04-28T06:59:17.142Z,10.85
2023-04-28T07:00:18.905Z,10.82
2023-04-28T07:01:20.630Z,10.75
2023-04-28T07:02:22.362Z,10.69
2023-04-28T07:03:24.164Z,10.81
2023-04-28T07:04:26.153Z,10.79
2023-04-28T07:05:28.906Z,10.82
2023-04-28T07:06:31.875Z,10.86
2023-04-28T07:07:33.510Z,10.86
2023-04-28T07:08:36.465Z,10.93
2023-04-28T07:09:38.069Z,10.88
2023-04-28T07:10:39.660Z,10.92
2023-04-28T07:11:41.948Z,10.87
2023-04-28T07:12:43.588Z,10.91
2023-04-28T07:13:49.271Z,10.85
2023-04-28T07:14:51.609Z,10.87
2023-04-28T07:15:53.253Z,10.84
2023-04-28T07:16:54.922Z,10.84
2023-04-28T07:17:56.701Z,10.81
2023-04-28T07:18:58.287Z,10.79
2023-04-28T07:19:59.898Z,10.83
2023-04-28T07:21:03.316Z,10.84
2023-04-28T07:22:06.539Z,10.77
2023-04-28T07:23:08.187Z,10.66
2023-04-28T07:24:09.821Z,10.74
2023-04-28T07:25:11.506Z,10.76
2023-04-28T07:26:16.348Z,10.78
2023-04-28T07:27:17.953Z,10.77
2023-04-28T07:28:20.406Z,10.80
2023-04-28T07:29:21.880Z,10.82
2023-04-28T07:30:27.761Z,10.88
2023-04-28T07:31:29.882Z,10.87
2023-04-28T07:32:31.623Z,10.88
2023-04-28T07:33:33.213Z,10.93
2023-04-28T07:34:35.895Z,10.84
2023-04-28T07:35:37.782Z,10.88
2023-04-28T07:36:39.365Z,10.86
2023-04-28T07:37:40.991Z,10.85
2023-04-28T07:38:42.643Z,10.85
2023-04-28T07:39:44.288Z,10.80
2023-04-28T07:40:46.304Z,10.73
2023-04-28T07:41:48.248Z,10.65
2023-04-28T07:42:49.944Z,10.67
2023-04-28T07:43:51.595Z,10.79
2023-04-28T07:44:53.249Z,10.79
2023-04-28T07:45:54.899Z,10.88
2023-04-28T07:46:56.946Z,10.91
2023-04-28T07:47:58.560Z,11.01
2023-04-28T07:49:01.071Z,11.07
2023-04-28T07:50:05.149Z,11.09
2023-04-28T07:51:06.997Z,11.09
2023-04-28T07:52:09.809Z,11.10
2023-04-28T07:53:11.428Z,11.13
2023-04-28T07:54:13.104Z,11.16
2023-04-28T07:55:16.062Z,11.19
2023-04-28T07:56:18.079Z,11.21
2023-04-28T07:57:19.684Z,11.17
2023-04-28T07:58:21.484Z,11.20
2023-04-28T07:59:23.063Z,11.22
2023-04-28T08:00:25.105Z,11.20
2023-04-28T08:01:26.722Z,11.28
2023-04-28T08:02:28.626Z,11.24
2023-04-28T08:03:30.614Z,11.23
2023-04-28T08:04:33.942Z,11.20
2023-04-28T08:05:36.429Z,11.12
2023-04-28T08:06:38.899Z,11.17
2023-04-28T08:07:40.364Z,11.21
2023-04-28T08:08:42.095Z,11.23
2023-04-28T08:09:47.660Z,11.20
2023-04-28T08:10:50.709Z,11.08
2023-04-28T08:11:52.500Z,11.12
2023-04-28T08:12:54.281Z,11.04
2023-04-28T08:14:01.145Z,11.04
2023-04-28T08:15:02.789Z,11.06
2023-04-28T08:16:04.772Z,11.13
2023-04-28T08:17:06.438Z,11.23
2023-04-28T08:18:08.551Z,11.23
2023-04-28T08:19:10.282Z,11.24
2023-04-28T08:20:12.209Z,11.24
2023-04-28T08:21:13.869Z,11.30
2023-04-28T08:22:15.855Z,11.27
2023-04-28T08:23:17.544Z,11.38
2023-04-28T08:24:19.236Z,11.34
2023-04-28T08:25:21.020Z,11.37
2023-04-28T08:26:24.654Z,11.43
2023-04-28T08:27:26.466Z,11.42
2023-04-28T08:28:28.159Z,11.40
2023-04-28T08:29:31.066Z,11.43
2023-04-28T08:30:33.709Z,11.36
2023-04-28T08:31:35.330Z,11.39
2023-04-28T08:32:37.052Z,11.38
2023-04-28T08:33:39.091Z,11.47
2023-04-28T08:34:40.694Z,11.32
2023-04-28T08:35:42.369Z,11.25
2023-04-28T08:36:44.002Z,11.18
2023-04-28T08:37:45.748Z,11.23
2023-04-28T08:38:47.654Z,11.30
2023-04-28T08:39:49.278Z,11.28
2023-04-28T08:40:51.760Z,11.38
2023-04-28T08:41:53.751Z,11.40
2023-04-28T08:42:55.488Z,11.47
2023-04-28T08:43:58.550Z,11.44
2023-04-28T08:45:00.301Z,11.48
2023-04-28T08:46:06.403Z,11.42
2023-04-28T08:47:13.979Z,11.48
2023-04-28T08:48:20.411Z,11.45
2023-04-28T08:49:23.748Z,11.41
2023-04-28T08:50:26.427Z,11.31
2023-04-28T08:51:34.190Z,11.42
2023-04-28T08:52:36.198Z,11.41
2023-04-28T08:53:59.402Z,11.45
2023-04-28T08:55:03.352Z,11.41
2023-04-28T08:56:08.888Z,11.42
2023-04-28T08:57:11.197Z,11.44
2023-04-28T08:58:12.882Z,11.43
2023-04-28T08:59:14.829Z,11.37
2023-04-28T09:00:16.695Z,11.20
2023-04-28T09:01:18.338Z,11.16
2023-04-28T09:02:20.543Z,11.24
2023-04-28T09:03:22.293Z,11.13
2023-04-28T09:04:24.405Z,11.08
2023-04-28T09:05:26.985Z,11.13
2023-04-28T09:06:46.829Z,11.20
2023-04-28T09:07:51.963Z,11.20
2023-04-28T09:08:53.734Z,11.17
2023-04-28T09:10:24.106Z,11.17
2023-04-28T09:11:25.970Z,11.14
2023-04-28T09:12:37.451Z,11.19
2023-04-28T09:13:40.080Z,11.26
2023-04-28T09:14:41.786Z,11.34
2023-04-28T09:15:45.519Z,11.23
2023-04-28T09:16:47.298Z,11.19
2023-04-28T09:17:52.891Z,11.23
2023-04-28T09:18:58.183Z,11.19
2023-04-28T09:19:59.984Z,11.18
2023-04-28T09:21:06.554Z,11.21
2023-04-28T09:22:24.853Z,11.20
2023-04-28T09:23:27.568Z,11.28
2023-04-28T09:24:33.873Z,11.28
2023-04-28T09:25:35.467Z,11.28
2023-04-28T09:26:50.630Z,11.28
2023-04-28T09:27:52.555Z,11.32
2023-04-28T09:29:12.888Z,11.28
2023-04-28T09:30:16.150Z,11.20
2023-04-28T09:31:25.940Z,11.30
2023-04-28T09:32:28.786Z,11.23
2023-04-28T09:33:30.829Z,11.15
2023-04-28T09:34:49.427Z,11.20
2023-04-28T09:35:51.762Z,11.22
2023-04-28T09:36:53.365Z,11.22
2023-04-28T09:38:00.991Z,11.18
2023-04-28T09:39:03.037Z,11.22
2023-04-28T09:40:09.717Z,11.27
2023-04-28T09:41:11.346Z,11.30
2023-04-28T09:42:33.772Z,11.24
2023-04-28T09:43:35.735Z,11.21
2023-04-28T09:44:37.463Z,11.25
2023-04-28T09:45:42.543Z,11.22
2023-04-28T09:46:45.792Z,11.32
2023-04-28T09:47:48.347Z,11.37
2023-04-28T09:48:50.044Z,11.36
2023-04-28T09:49:56.044Z,11.42
2023-04-28T09:50:59.211Z,11.33
2023-04-28T09:52:13.848Z,11.33
2023-04-28T09:53:15.925Z,11.33
2023-04-28T09:54:18.421Z,11.41
2023-04-28T09:55:20.486Z,11.42
2023-04-28T09:56:22.638Z,11.40
2023-04-28T09:57:24.448Z,11.42
2023-04-28T09:58:27.356Z,11.41
2023-04-28T09:59:29.178Z,11.49
2023-04-28T10:00:33.916Z,11.53
2023-04-28T10:01:38.891Z,11.56
2023-04-28T10:02:43.840Z,11.50
2023-04-28T10:03:46.384Z,11.51
2023-04-28T10:04:51.073Z,11.40
2023-04-28T10:05:53.496Z,11.49
2023-04-28T10:06:56.868Z,11.46
2023-04-28T10:08:00.252Z,11.47
2023-04-28T10:09:02.414Z,11.47
2023-04-28T10:10:05.419Z,11.50
2023-04-28T10:11:07.389Z,11.54
2023-04-28T10:12:08.982Z,11.55
2023-04-28T10:13:10.709Z,11.54
2023-04-28T10:14:12.821Z,11.49
2023-04-28T10:15:17.271Z,11.50
2023-04-28T10:16:19.897Z,11.48
2023-04-28T10:17:22.432Z,11.56
2023-04-28T10:18:24.550Z,11.51
2023-04-28T10:19:26.126Z,11.46
2023-04-28T10:20:29.502Z,11.54
2023-04-28T10:21:33.891Z,11.48
2023-04-28T10:23:13.153Z,11.53
2023-04-28T10:24:15.462Z,11.59
2023-04-28T10:25:23.117Z,11.61
2023-04-28T10:26:35.112Z,11.60
2023-04-28T10:27:38.787Z,11.63
2023-04-28T10:28:47.448Z,11.59
2023-04-28T10:29:49.077Z,11.55
2023-04-28T10:31:09.817Z,11.52
2023-04-28T10:32:15.883Z,11.54
2023-04-28T10:33:17.478Z,11.52
2023-04-28T10:34:22.839Z,11.55
2023-04-28T10:35:24.613Z,11.58
2023-04-28T10:36:49.098Z,11.64
2023-04-28T10:38:15.144Z,11.62
2023-04-28T10:39:16.866Z,11.59
2023-04-28T10:40:45.907Z,11.59
2023-04-28T10:41:48.859Z,11.57
2023-04-28T10:42:58.892Z,11.76
2023-04-28T10:44:00.538Z,11.74
2023-04-28T10:45:02.660Z,11.73
2023-04-28T10:46:06.591Z,11.71
2023-04-28T10:47:09.706Z,11.66
2023-04-28T10:48:11.596Z,11.69
2023-04-28T10:49:13.171Z,11.70
2023-04-28T10:50:20.049Z,11.59
2023-04-28T10:51:24.439Z,11.64
2023-04-28T10:52:41.285Z,11.66
2023-04-28T10:53:43.308Z,11.68
2023-04-28T10:55:23.429Z,11.71
2023-04-28T10:56:26.882Z,11.70
2023-04-28T10:57:28.502Z,11.75
2023-04-28T10:58:30.716Z,11.82
2023-04-28T10:59:32.639Z,11.81
2023-04-28T11:00:34.308Z,11.85
2023-04-28T11:01:36.955Z,11.94
2023-04-28T11:02:43.727Z,11.99
2023-04-28T11:03:46.855Z,12.09
2023-04-28T11:05:10.721Z,12.18
2023-04-28T11:06:33.105Z,12.26
2023-04-28T11:07:34.759Z,12.29
2023-04-28T11:08:36.413Z,12.32
2023-04-28T11:09:37.952Z,12.35
2023-04-28T11:11:17.393Z,12.42
2023-04-28T11:12:19.646Z,12.51
2023-04-28T11:13:28.439Z,12.50
2023-04-28T11:14:30.234Z,12.47
2023-04-28T11:15:31.978Z,12.49
2023-04-28T11:16:33.950Z,12.44
2023-04-28T11:17:41.218Z,12.57
2023-04-28T11:18:56.198Z,12.80
2023-04-28T11:19:59.169Z,12.78
2023-04-28T11:21:00.750Z,12.80
2023-04-28T11:22:11.889Z,12.66
2023-04-28T11:23:14.344Z,12.79
2023-04-28T11:24:15.951Z,12.79
2023-04-28T11:25:17.590Z,12.77
2023-04-28T11:26:19.990Z,12.84
2023-04-28T11:27:25.209Z,12.89
2023-04-28T11:28:26.819Z,12.78
2023-04-28T11:29:39.213Z,12.76
2023-04-28T11:30:40.943Z,12.62
2023-04-28T11:31:51.147Z,12.68
2023-04-28T11:32:52.924Z,12.64
2023-04-28T11:34:07.334Z,12.55
2023-04-28T11:35:09.937Z,12.53
2023-04-28T11:36:42.845Z,12.57
2023-04-28T11:37:44.331Z,12.57
2023-04-28T11:38:46.991Z,12.55
2023-04-28T11:39:48.661Z,12.60
2023-04-28T11:40:57.300Z,12.62
2023-04-28T11:42:04.203Z,12.74
2023-04-28T11:43:06.673Z,12.78
2023-04-28T11:44:15.039Z,12.79
2023-04-28T11:45:16.748Z,12.74
2023-04-28T11:46:25.460Z,12.82
2023-04-28T11:47:31.440Z,12.81
2023-04-28T11:48:33.226Z,12.90
2023-04-28T11:49:45.733Z,12.96
2023-04-28T11:50:47.380Z,12.95
2023-04-28T11:51:50.320Z,12.91
2023-04-28T11:52:53.724Z,13.00
2023-04-28T11:53:55.832Z,12.92
2023-04-28T11:55:00.289Z,12.92
2023-04-28T11:56:10.748Z,12.99
2023-04-28T11:57:21.967Z,13.05
2023-04-28T11:58:24.865Z,13.10
2023-04-28T11:59:31.120Z,13.07
2023-04-28T12:00:32.768Z,13.02
2023-04-28T12:01:37.771Z,13.05
2023-04-28T12:02:39.751Z,13.03
2023-04-28T12:03:45.822Z,13.12
2023-04-28T12:04:48.560Z,13.25
2023-04-28T12:05:50.181Z,13.27
2023-04-28T12:07:16.833Z,13.27
2023-04-28T12:08:27.777Z,13.33
2023-04-28T12:09:29.585Z,13.32
2023-04-28T12:10:31.187Z,13.39
2023-04-28T12:11:32.825Z,13.37
2023-04-28T12:12:49.112Z,13.53
2023-04-28T12:14:07.793Z,13.64
2023-04-28T12:15:09.903Z,13.93
2023-04-28T12:16:11.683Z,13.99
2023-04-28T12:17:23.948Z,14.31
2023-04-28T12:18:25.593Z,14.47
2023-04-28T12:19:27.486Z,14.69
2023-04-28T12:20:36.986Z,14.98
2023-04-28T12:21:39.996Z,15.14
2023-04-28T12:22:48.372Z,15.41
2023-04-28T12:23:50.346Z,15.45
2023-04-28T12:25:08.947Z,15.55
2023-04-28T12:26:11.250Z,15.35
2023-04-28T12:27:16.177Z,15.08
2023-04-28T12:28:17.771Z,14.82
2023-04-28T12:29:39.241Z,14.80
2023-04-28T12:30:44.081Z,14.65
2023-04-28T12:31:53.151Z,14.38
2023-04-28T12:32:56.144Z,14.27
2023-04-28T12:33:58.006Z,14.09
2023-04-28T12:34:59.586Z,14.12
2023-04-28T12:36:01.565Z,14.15
2023-04-28T12:37:05.786Z,14.24
2023-04-28T12:38:11.530Z,14.39
2023-04-28T12:39:16.410Z,14.40
2023-04-28T12:40:18.356Z,14.37
2023-04-28T12:41:20.114Z,14.35
2023-04-28T12:42:22.894Z,14.38
2023-04-28T12:43:25.725Z,14.33
2023-04-28T12:44:28.465Z,14.32
2023-04-28T12:45:31.224Z,14.30
2023-04-28T12:46:33.493Z,14.22
2023-04-28T12:47:35.341Z,14.26
2023-04-28T12:48:37.141Z,14.36
2023-04-28T12:49:39.001Z,14.44
2023-04-28T12:50:40.588Z,14.44
2023-04-28T12:51:42.195Z,14.40
2023-04-28T12:52:43.774Z,14.41
2023-04-28T12:53:45.370Z,14.47
2023-04-28T12:54:47.327Z,14.51
2023-04-28T12:55:49.070Z,14.57
2023-04-28T12:56:50.838Z,14.52
2023-04-28T12:57:52.649Z,14.45
2023-04-28T12:58:54.274Z,14.56
2023-04-28T12:59:57.118Z,14.68
2023-04-28T13:00:59.061Z,14.75
2023-04-28T13:02:00.833Z,14.84
2023-04-28T13:03:02.691Z,14.90
2023-04-28T13:04:04.979Z,14.93
2023-04-28T13:05:07.324Z,15.00
2023-04-28T13:06:10.445Z,14.92
2023-04-28T13:07:12.956Z,14.74
2023-04-28T13:08:14.536Z,14.74
2023-04-28T13:09:16.500Z,14.83
2023-04-28T13:10:18.983Z,14.82
2023-04-28T13:11:23.241Z,14.69
2023-04-28T13:12:25.023Z,14.86
2023-04-28T13:13:26.795Z,14.89
2023-04-28T13:14:28.612Z,14.88
2023-04-28T13:15:31.130Z,15.00
2023-04-28T13:16:32.949Z,15.27
2023-04-28T13:17:37.386Z,15.23
2023-04-28T13:18:38.999Z,15.13
2023-04-28T13:19:41.019Z,15.09
2023-04-28T13:20:42.814Z,15.15
2023-04-28T13:21:47.070Z,15.21
2023-04-28T13:22:48.689Z,15.24
2023-04-28T13:23:50.330Z,15.10
2023-04-28T13:24:51.909Z,14.98
2023-04-28T13:25:53.577Z,15.02
2023-04-28T13:26:55.172Z,15.03
2023-04-28T13:27:56.798Z,14.96
2023-04-28T13:28:58.564Z,14.88
2023-04-28T13:30:00.695Z,14.95
2023-04-28T13:31:02.321Z,15.03
2023-04-28T13:32:05.755Z,15.02
2023-04-28T13:33:07.850Z,14.89
2023-04-28T13:34:15.741Z,14.89
2023-04-28T13:35:18.143Z,14.86
2023-04-28T13:36:19.753Z,14.83
2023-04-28T13:37:21.428Z,14.93
2023-04-28T13:38:23.346Z,14.88
2023-04-28T13:39:24.970Z,14.74
2023-04-28T13:40:26.561Z,14.76
2023-04-28T13:41:28.230Z,14.70
2023-04-28T13:42:29.806Z,14.68
2023-04-28T13:43:31.438Z,14.62
2023-04-28T13:44:33.041Z,14.54
2023-04-28T13:45:34.649Z,14.56
2023-04-28T13:46:36.391Z,14.61
2023-04-28T13:47:38.296Z,14.73
2023-04-28T13:48:40.450Z,14.61
2023-04-28T13:49:42.262Z,14.64
2023-04-28T13:50:43.912Z,14.55